Gazi — 9HA2542 — position and weather

sailwx.info

Track history (hours):
 
Tides and Currents Weather Stations Pressure Air Temp Water Temp Dewpoint Dewpoint Depression Visibility Wind Speed Wind Dir Waves Ship Positions

Gazi

Last reported at 2016-Jun-25 04:18 UTC. Time now 2016-Jun-25 14:15 UTC.
Position N 41°06' E 001°14'.

Length 153 m; draft 8.8 m.

Type: Ship. MMSI: 248841000.

Date/timePositionNaut miles runAvg speedWind from/ knotsBaromVisibWave heightAir tempDewpointWater temp
2016-Jun-25 04:18N 41°06' E 001°14'0 0.0
2016-Jun-25 01:06N 41°06' E 001°14'0 0.0
2016-Jun-23 19:33N 41°06' E 001°14'0 0.0
2016-Jun-23 13:13N 41°06' E 001°14'2 2.8
2016-Jun-23 12:32N 41°04' E 001°14'2 2.2
2016-Jun-23 11:29N 41°05' E 001°17'0 0.0
2016-Jun-23 10:29N 41°05' E 001°17'0 0.0
2016-Jun-23 09:27N 41°05' E 001°17'0 0.0
2016-Jun-23 08:27N 41°05' E 001°17'8 7.0
2016-Jun-23 07:17N 41°01' E 001°26'16 9.2
2016-Jun-23 05:33N 40°55' E 001°46'1211.5
2016-Jun-23 04:33N 40°51' E 002°00'1211.9
2016-Jun-23 03:33N 40°47' E 002°15'1211.9
2016-Jun-23 02:33N 40°43' E 002°29'1211.9
2016-Jun-23 01:33N 40°38' E 002°44'1211.7
2016-Jun-23 00:33N 40°34' E 002°58'1211.8
2016-Jun-22 23:33N 40°30' E 003°13'1211.9
2016-Jun-22 22:32N 40°25' E 003°28'25811.7
2016-Jun-22 00:29N 38°33' E 008°29'1411.9
2016-Jun-21 23:18N 38°27' E 008°45'911.9
2016-Jun-21 22:33N 38°23' E 008°55'23211.4
2016-Jun-21 02:15N 36°41' E 013°18'810.9
2016-Jun-21 01:33N 36°38' E 013°26'1111.0
2016-Jun-21 00:33N 36°34' E 013°39'1111.3
2016-Jun-20 23:33N 36°29' E 013°52'1211.6
2016-Jun-20 22:33N 36°25' E 014°05'1111.5
2016-Jun-20 21:33N 36°21' E 014°19'1111.1
2016-Jun-20 20:33N 36°17' E 014°31'1111.3
2016-Jun-20 19:33N 36°13' E 014°45'1111.1
2016-Jun-20 18:33N 36°09' E 014°57'1111.1
2016-Jun-20 17:33N 36°05' E 015°10'39611.6
2016-Jun-19 07:15N 36°21' E 023°21'811.8
2016-Jun-19 06:33N 36°28' E 023°27'1211.7
2016-Jun-19 05:33N 36°37' E 023°35'1211.7
2016-Jun-19 04:33N 36°47' E 023°43'1211.8
2016-Jun-19 03:33N 36°57' E 023°52'1211.7
2016-Jun-19 02:33N 37°06' E 024°00'1211.9
2016-Jun-19 01:34N 37°16' E 024°08'2912.4
2016-Jun-18 23:13N 37°41' E 024°28'1412.1
2016-Jun-18 22:05N 37°54' E 024°34'3312.1
2016-Jun-18 19:22N 38°23' E 024°52'1112.1
2016-Jun-18 18:27N 38°33' E 024°58'7512.3
2016-Jun-18 12:20N 39°40' E 025°42'1412.1
2016-Jun-18 11:09N 39°53' E 025°50'711.9
2016-Jun-18 10:33N 39°59' E 025°55'7210.3
2016-Jun-18 03:33N 40°38' E 027°15'10 9.5
2016-Jun-18 02:33N 40°41' E 027°27'1111.2
2016-Jun-18 01:33N 40°43' E 027°41'3711.7
2016-Jun-17 22:23N 40°40' E 028°30'1012.0
2016-Jun-17 21:33N 40°47' E 028°40'1211.8
2016-Jun-17 20:32N 40°54' E 028°52'5 4.9
2016-Jun-17 19:26N 40°58' E 028°57'232 9.7
2016-Jun-16 19:33N 44°40' E 030°29'1211.9
2016-Jun-16 18:33N 44°52' E 030°34'7311.6
2016-Jun-16 12:15N 46°02' E 031°03'1210.4
2016-Jun-16 11:06N 46°13' E 030°56'610.4
2016-Jun-16 10:29N 46°20' E 030°55'1111.7
2016-Jun-16 09:33N 46°30' E 030°55'30 9.2
2016-Jun-16 06:16N 46°36' E 031°39'8 9.8
2016-Jun-16 05:28N 46°36' E 031°50'8 8.8
2016-Jun-16 04:33N 46°43' E 031°56'7 6.8
2016-Jun-16 03:30N 46°50' E 031°56'0 0.0
2016-Jun-16 02:33N 46°50' E 031°56'0 0.0
2016-Jun-16 01:33N 46°50' E 031°56'0 0.0
2016-Jun-16 00:33N 46°50' E 031°56'0 0.0
2016-Jun-15 23:33N 46°50' E 031°56'0 0.0
2016-Jun-15 22:33N 46°50' E 031°56'0 0.1
2016-Jun-15 21:30N 46°50' E 031°56'2 2.3
2016-Jun-15 20:33N 46°51' E 031°59'0 0.1
2016-Jun-15 19:33N 46°51' E 031°59'0 0.0
2016-Jun-15 18:29N 46°51' E 031°59'0 0.0
2016-Jun-15 17:33N 46°51' E 031°59'0 0.0
2016-Jun-15 16:30N 46°51' E 031°59'0 0.0
2016-Jun-15 15:32N 46°51' E 031°59'0 0.0
2016-Jun-15 14:32N 46°51' E 031°59'0 0.0
2016-Jun-15 13:32N 46°51' E 031°59'0 0.0
2016-Jun-15 12:30N 46°51' E 031°59'0 0.0
2016-Jun-15 11:33N 46°51' E 031°59'0 0.0
2016-Jun-15 10:28N 46°51' E 031°59'0 0.0
2016-Jun-15 09:32N 46°51' E 031°59'0 0.0
2016-Jun-15 08:28N 46°51' E 031°59'0 0.0
2016-Jun-15 07:32N 46°51' E 031°59'0 0.0
2016-Jun-15 06:32N 46°51' E 031°59'0 0.0
2016-Jun-15 05:33N 46°51' E 031°59'0 0.0
2016-Jun-15 04:33N 46°51' E 031°59'  
Track history (hours):
 
Tides and Currents Weather Stations Pressure Air Temp Water Temp Dewpoint Dewpoint Depression Visibility Wind Speed Wind Dir Waves Ship Positions

Gazi

Last reported at 2016-Jun-25 04:18 UTC. Time now 2016-Jun-25 14:15 UTC.
Position N 41°06' E 001°14'.

Length 153 m; draft 8.8 m.

Type: Ship. MMSI: 248841000.

Date/timePositionNaut miles runAvg speedWind from/ knotsBaromVisibWave heightAir tempDewpointWater temp
2016-Jun-25 04:18N 41°06' E 001°14'0 0.0
2016-Jun-25 01:06N 41°06' E 001°14'0 0.0
2016-Jun-23 19:33N 41°06' E 001°14'0 0.0
2016-Jun-23 13:13N 41°06' E 001°14'2 2.8
2016-Jun-23 12:32N 41°04' E 001°14'2 2.2
2016-Jun-23 11:29N 41°05' E 001°17'0 0.0
2016-Jun-23 10:29N 41°05' E 001°17'0 0.0
2016-Jun-23 09:27N 41°05' E 001°17'0 0.0
2016-Jun-23 08:27N 41°05' E 001°17'8 7.0
2016-Jun-23 07:17N 41°01' E 001°26'16 9.2
2016-Jun-23 05:33N 40°55' E 001°46'1211.5
2016-Jun-23 04:33N 40°51' E 002°00'1211.9
2016-Jun-23 03:33N 40°47' E 002°15'1211.9
2016-Jun-23 02:33N 40°43' E 002°29'1211.9
2016-Jun-23 01:33N 40°38' E 002°44'1211.7
2016-Jun-23 00:33N 40°34' E 002°58'1211.8
2016-Jun-22 23:33N 40°30' E 003°13'1211.9
2016-Jun-22 22:32N 40°25' E 003°28'25811.7
2016-Jun-22 00:29N 38°33' E 008°29'1411.9
2016-Jun-21 23:18N 38°27' E 008°45'911.9
2016-Jun-21 22:33N 38°23' E 008°55'23211.4
2016-Jun-21 02:15N 36°41' E 013°18'810.9
2016-Jun-21 01:33N 36°38' E 013°26'1111.0
2016-Jun-21 00:33N 36°34' E 013°39'1111.3
2016-Jun-20 23:33N 36°29' E 013°52'1211.6
2016-Jun-20 22:33N 36°25' E 014°05'1111.5
2016-Jun-20 21:33N 36°21' E 014°19'1111.1
2016-Jun-20 20:33N 36°17' E 014°31'1111.3
2016-Jun-20 19:33N 36°13' E 014°45'1111.1
2016-Jun-20 18:33N 36°09' E 014°57'1111.1
2016-Jun-20 17:33N 36°05' E 015°10'39611.6
2016-Jun-19 07:15N 36°21' E 023°21'811.8
2016-Jun-19 06:33N 36°28' E 023°27'1211.7
2016-Jun-19 05:33N 36°37' E 023°35'1211.7
2016-Jun-19 04:33N 36°47' E 023°43'1211.8
2016-Jun-19 03:33N 36°57' E 023°52'1211.7
2016-Jun-19 02:33N 37°06' E 024°00'1211.9
2016-Jun-19 01:34N 37°16' E 024°08'2912.4
2016-Jun-18 23:13N 37°41' E 024°28'1412.1
2016-Jun-18 22:05N 37°54' E 024°34'3312.1
2016-Jun-18 19:22N 38°23' E 024°52'1112.1
2016-Jun-18 18:27N 38°33' E 024°58'7512.3
2016-Jun-18 12:20N 39°40' E 025°42'1412.1
2016-Jun-18 11:09N 39°53' E 025°50'711.9
2016-Jun-18 10:33N 39°59' E 025°55'7210.3
2016-Jun-18 03:33N 40°38' E 027°15'10 9.5
2016-Jun-18 02:33N 40°41' E 027°27'1111.2
2016-Jun-18 01:33N 40°43' E 027°41'3711.7
2016-Jun-17 22:23N 40°40' E 028°30'1012.0
2016-Jun-17 21:33N 40°47' E 028°40'1211.8
2016-Jun-17 20:32N 40°54' E 028°52'5 4.9
2016-Jun-17 19:26N 40°58' E 028°57'232 9.7
2016-Jun-16 19:33N 44°40' E 030°29'1211.9
2016-Jun-16 18:33N 44°52' E 030°34'7311.6
2016-Jun-16 12:15N 46°02' E 031°03'1210.4
2016-Jun-16 11:06N 46°13' E 030°56'610.4
2016-Jun-16 10:29N 46°20' E 030°55'1111.7
2016-Jun-16 09:33N 46°30' E 030°55'30 9.2
2016-Jun-16 06:16N 46°36' E 031°39'8 9.8
2016-Jun-16 05:28N 46°36' E 031°50'8 8.8
2016-Jun-16 04:33N 46°43' E 031°56'7 6.8
2016-Jun-16 03:30N 46°50' E 031°56'0 0.0
2016-Jun-16 02:33N 46°50' E 031°56'0 0.0
2016-Jun-16 01:33N 46°50' E 031°56'0 0.0
2016-Jun-16 00:33N 46°50' E 031°56'0 0.0
2016-Jun-15 23:33N 46°50' E 031°56'0 0.0
2016-Jun-15 22:33N 46°50' E 031°56'0 0.1
2016-Jun-15 21:30N 46°50' E 031°56'2 2.3
2016-Jun-15 20:33N 46°51' E 031°59'0 0.1
2016-Jun-15 19:33N 46°51' E 031°59'0 0.0
2016-Jun-15 18:29N 46°51' E 031°59'0 0.0
2016-Jun-15 17:33N 46°51' E 031°59'0 0.0
2016-Jun-15 16:30N 46°51' E 031°59'0 0.0
2016-Jun-15 15:32N 46°51' E 031°59'0 0.0
2016-Jun-15 14:32N 46°51' E 031°59'0 0.0
2016-Jun-15 13:32N 46°51' E 031°59'0 0.0
2016-Jun-15 12:30N 46°51' E 031°59'0 0.0
2016-Jun-15 11:33N 46°51' E 031°59'0 0.0
2016-Jun-15 10:28N 46°51' E 031°59'0 0.0
2016-Jun-15 09:32N 46°51' E 031°59'0 0.0
2016-Jun-15 08:28N 46°51' E 031°59'0 0.0
2016-Jun-15 07:32N 46°51' E 031°59'0 0.0
2016-Jun-15 06:32N 46°51' E 031°59'0 0.0
2016-Jun-15 05:33N 46°51' E 031°59'0 0.0
2016-Jun-15 04:33N 46°51' E 031°59'  

Dump ship's entire track history